sensor_id;sensor_type;location;lat;lon;timestamp;P1;durP1;ratioP1;P2;durP2;ratioP2
48871;SDS011;36154;51.674;7.824;2023-05-07T00:00:03;0.40;;;0.40;;
48871;SDS011;36154;51.674;7.824;2023-05-07T00:02:32;0.40;;;0.40;;
48871;SDS011;36154;51.674;7.824;2023-05-07T00:04:58;0.50;;;0.50;;
48871;SDS011;36154;51.674;7.824;2023-05-07T00:07:23;0.40;;;0.40;;
48871;SDS011;36154;51.674;7.824;2023-05-07T00:09:49;0.43;;;0.43;;
48871;SDS011;36154;51.674;7.824;2023-05-07T00:12:14;0.40;;;0.40;;
48871;SDS011;36154;51.674;7.824;2023-05-07T00:14:39;0.40;;;0.40;;
48871;SDS011;36154;51.674;7.824;2023-05-07T00:17:04;0.65;;;0.65;;
48871;SDS011;36154;51.674;7.824;2023-05-07T00:19:30;1.20;;;0.40;;
48871;SDS011;36154;51.674;7.824;2023-05-07T00:21:55;0.40;;;0.40;;
48871;SDS011;36154;51.674;7.824;2023-05-07T00:24:21;0.57;;;0.30;;
48871;SDS011;36154;51.674;7.824;2023-05-07T00:26:46;0.30;;;0.30;;
48871;SDS011;36154;51.674;7.824;2023-05-07T00:29:12;0.57;;;0.30;;
48871;SDS011;36154;51.674;7.824;2023-05-07T00:31:37;0.50;;;0.50;;
48871;SDS011;36154;51.674;7.824;2023-05-07T00:34:02;0.50;;;0.50;;
48871;SDS011;36154;51.674;7.824;2023-05-07T00:36:28;0.50;;;0.50;;
48871;SDS011;36154;51.674;7.824;2023-05-07T00:38:54;0.30;;;0.30;;
48871;SDS011;36154;51.674;7.824;2023-05-07T00:41:21;0.50;;;0.50;;
48871;SDS011;36154;51.674;7.824;2023-05-07T00:43:47;0.43;;;0.40;;
48871;SDS011;36154;51.674;7.824;2023-05-07T00:46:13;0.40;;;0.40;;
48871;SDS011;36154;51.674;7.824;2023-05-07T00:48:38;0.65;;;0.50;;
48871;SDS011;36154;51.674;7.824;2023-05-07T00:51:04;0.38;;;0.38;;
48871;SDS011;36154;51.674;7.824;2023-05-07T00:53:29;0.38;;;0.38;;
48871;SDS011;36154;51.674;7.824;2023-05-07T00:55:55;0.45;;;0.45;;
48871;SDS011;36154;51.674;7.824;2023-05-07T00:58:21;0.30;;;0.30;;
48871;SDS011;36154;51.674;7.824;2023-05-07T01:00:46;0.57;;;0.40;;
48871;SDS011;36154;51.674;7.824;2023-05-07T01:03:11;0.30;;;0.30;;
48871;SDS011;36154;51.674;7.824;2023-05-07T01:05:37;0.40;;;0.40;;
48871;SDS011;36154;51.674;7.824;2023-05-07T01:08:03;0.32;;;0.32;;
48871;SDS011;36154;51.674;7.824;2023-05-07T01:10:29;0.30;;;0.30;;
48871;SDS011;36154;51.674;7.824;2023-05-07T01:12:55;0.38;;;0.38;;
48871;SDS011;36154;51.674;7.824;2023-05-07T01:15:23;0.40;;;0.40;;
48871;SDS011;36154;51.674;7.824;2023-05-07T01:17:48;0.28;;;0.28;;
48871;SDS011;36154;51.674;7.824;2023-05-07T01:20:14;0.45;;;0.45;;
48871;SDS011;36154;51.674;7.824;2023-05-07T01:22:40;0.40;;;0.40;;
48871;SDS011;36154;51.674;7.824;2023-05-07T01:25:07;0.40;;;0.40;;
48871;SDS011;36154;51.674;7.824;2023-05-07T01:27:33;0.30;;;0.30;;
48871;SDS011;36154;51.674;7.824;2023-05-07T01:30:00;0.32;;;0.32;;
48871;SDS011;36154;51.674;7.824;2023-05-07T01:32:32;0.30;;;0.30;;
48871;SDS011;36154;51.674;7.824;2023-05-07T01:35:02;0.30;;;0.30;;
48871;SDS011;36154;51.674;7.824;2023-05-07T01:37:30;0.30;;;0.30;;
48871;SDS011;36154;51.674;7.824;2023-05-07T01:39:55;0.28;;;0.28;;
48871;SDS011;36154;51.674;7.824;2023-05-07T01:42:21;0.40;;;0.20;;
48871;SDS011;36154;51.674;7.824;2023-05-07T01:44:49;0.28;;;0.28;;
48871;SDS011;36154;51.674;7.824;2023-05-07T01:47:14;0.50;;;0.50;;
48871;SDS011;36154;51.674;7.824;2023-05-07T01:49:41;0.50;;;0.50;;
48871;SDS011;36154;51.674;7.824;2023-05-07T01:52:07;0.32;;;0.30;;
48871;SDS011;36154;51.674;7.824;2023-05-07T01:54:33;0.38;;;0.38;;
48871;SDS011;36154;51.674;7.824;2023-05-07T01:56:58;0.30;;;0.30;;
48871;SDS011;36154;51.674;7.824;2023-05-07T01:59:25;0.40;;;0.40;;
48871;SDS011;36154;51.674;7.824;2023-05-07T02:01:50;0.25;;;0.25;;
48871;SDS011;36154;51.674;7.824;2023-05-07T02:04:15;0.38;;;0.38;;
48871;SDS011;36154;51.674;7.824;2023-05-07T02:06:41;0.35;;;0.35;;
48871;SDS011;36154;51.674;7.824;2023-05-07T02:09:06;0.35;;;0.35;;
48871;SDS011;36154;51.674;7.824;2023-05-07T02:11:31;0.30;;;0.30;;
48871;SDS011;36154;51.674;7.824;2023-05-07T02:13:56;0.32;;;0.30;;
48871;SDS011;36154;51.674;7.824;2023-05-07T02:16:22;0.50;;;0.30;;
48871;SDS011;36154;51.674;7.824;2023-05-07T02:18:48;0.30;;;0.30;;
48871;SDS011;36154;51.674;7.824;2023-05-07T02:21:14;0.45;;;0.45;;
48871;SDS011;36154;51.674;7.824;2023-05-07T02:23:39;0.52;;;0.52;;
48871;SDS011;36154;51.674;7.824;2023-05-07T02:26:04;0.40;;;0.40;;
48871;SDS011;36154;51.674;7.824;2023-05-07T02:28:30;0.43;;;0.43;;
48871;SDS011;36154;51.674;7.824;2023-05-07T02:30:55;0.30;;;0.30;;
48871;SDS011;36154;51.674;7.824;2023-05-07T02:33:20;0.20;;;0.20;;
48871;SDS011;36154;51.674;7.824;2023-05-07T02:35:46;0.30;;;0.30;;
48871;SDS011;36154;51.674;7.824;2023-05-07T02:38:11;0.25;;;0.25;;
48871;SDS011;36154;51.674;7.824;2023-05-07T02:40:36;0.22;;;0.22;;
48871;SDS011;36154;51.674;7.824;2023-05-07T02:43:05;0.20;;;0.20;;
48871;SDS011;36154;51.674;7.824;2023-05-07T02:45:32;0.45;;;0.40;;
48871;SDS011;36154;51.674;7.824;2023-05-07T02:48:02;0.50;;;0.50;;
48871;SDS011;36154;51.674;7.824;2023-05-07T02:50:27;0.30;;;0.30;;
48871;SDS011;36154;51.674;7.824;2023-05-07T02:52:53;0.47;;;0.47;;
48871;SDS011;36154;51.674;7.824;2023-05-07T02:55:18;0.30;;;0.30;;
48871;SDS011;36154;51.674;7.824;2023-05-07T02:57:43;0.30;;;0.30;;
48871;SDS011;36154;51.674;7.824;2023-05-07T03:00:18;0.30;;;0.30;;
48871;SDS011;36154;51.674;7.824;2023-05-07T03:02:44;0.40;;;0.40;;
48871;SDS011;36154;51.674;7.824;2023-05-07T03:05:10;0.30;;;0.30;;
48871;SDS011;36154;51.674;7.824;2023-05-07T03:07:36;0.30;;;0.30;;
48871;SDS011;36154;51.674;7.824;2023-05-07T03:10:02;0.30;;;0.30;;
48871;SDS011;36154;51.674;7.824;2023-05-07T03:12:28;0.40;;;0.40;;
48871;SDS011;36154;51.674;7.824;2023-05-07T03:14:54;0.30;;;0.30;;
48871;SDS011;36154;51.674;7.824;2023-05-07T03:17:20;0.38;;;0.38;;
48871;SDS011;36154;51.674;7.824;2023-05-07T03:19:47;0.35;;;0.35;;
48871;SDS011;36154;51.674;7.824;2023-05-07T03:22:12;0.30;;;0.30;;
48871;SDS011;36154;51.674;7.824;2023-05-07T03:24:37;0.30;;;0.30;;
48871;SDS011;36154;51.674;7.824;2023-05-07T03:27:02;0.30;;;0.30;;
48871;SDS011;36154;51.674;7.824;2023-05-07T03:29:28;0.30;;;0.30;;
48871;SDS011;36154;51.674;7.824;2023-05-07T03:31:53;0.30;;;0.30;;
48871;SDS011;36154;51.674;7.824;2023-05-07T03:34:18;0.82;;;0.40;;
48871;SDS011;36154;51.674;7.824;2023-05-07T03:36:47;0.40;;;0.40;;
48871;SDS011;36154;51.674;7.824;2023-05-07T03:39:16;0.30;;;0.30;;
48871;SDS011;36154;51.674;7.824;2023-05-07T03:41:41;0.30;;;0.30;;
48871;SDS011;36154;51.674;7.824;2023-05-07T03:44:06;0.22;;;0.22;;
48871;SDS011;36154;51.674;7.824;2023-05-07T03:46:32;0.20;;;0.20;;
48871;SDS011;36154;51.674;7.824;2023-05-07T03:48:58;0.40;;;0.40;;
48871;SDS011;36154;51.674;7.824;2023-05-07T03:51:24;0.38;;;0.38;;
48871;SDS011;36154;51.674;7.824;2023-05-07T03:53:50;0.40;;;0.40;;
48871;SDS011;36154;51.674;7.824;2023-05-07T03:56:17;0.30;;;0.30;;
48871;SDS011;36154;51.674;7.824;2023-05-07T03:58:43;0.30;;;0.30;;
48871;SDS011;36154;51.674;7.824;2023-05-07T04:01:09;0.40;;;0.40;;
48871;SDS011;36154;51.674;7.824;2023-05-07T04:03:34;0.30;;;0.30;;
48871;SDS011;36154;51.674;7.824;2023-05-07T04:05:59;0.40;;;0.40;;
48871;SDS011;36154;51.674;7.824;2023-05-07T04:08:25;0.30;;;0.30;;
48871;SDS011;36154;51.674;7.824;2023-05-07T04:10:57;1.02;;;0.47;;
48871;SDS011;36154;51.674;7.824;2023-05-07T04:13:25;0.30;;;0.30;;
48871;SDS011;36154;51.674;7.824;2023-05-07T04:15:50;1.48;;;0.50;;
48871;SDS011;36154;51.674;7.824;2023-05-07T04:18:16;0.30;;;0.30;;
48871;SDS011;36154;51.674;7.824;2023-05-07T04:20:41;0.47;;;0.47;;
48871;SDS011;36154;51.674;7.824;2023-05-07T04:23:07;0.30;;;0.30;;
48871;SDS011;36154;51.674;7.824;2023-05-07T04:25:32;0.30;;;0.30;;
48871;SDS011;36154;51.674;7.824;2023-05-07T04:27:58;0.40;;;0.40;;
48871;SDS011;36154;51.674;7.824;2023-05-07T04:30:23;0.40;;;0.40;;
48871;SDS011;36154;51.674;7.824;2023-05-07T04:32:49;0.28;;;0.28;;
48871;SDS011;36154;51.674;7.824;2023-05-07T04:35:14;0.40;;;0.40;;
48871;SDS011;36154;51.674;7.824;2023-05-07T04:37:39;0.50;;;0.50;;
48871;SDS011;36154;51.674;7.824;2023-05-07T04:40:05;0.30;;;0.30;;
48871;SDS011;36154;51.674;7.824;2023-05-07T04:42:31;0.40;;;0.40;;
48871;SDS011;36154;51.674;7.824;2023-05-07T04:44:58;0.40;;;0.40;;
48871;SDS011;36154;51.674;7.824;2023-05-07T04:47:24;0.40;;;0.40;;
48871;SDS011;36154;51.674;7.824;2023-05-07T04:49:50;0.35;;;0.35;;
48871;SDS011;36154;51.674;7.824;2023-05-07T04:52:15;0.35;;;0.35;;
48871;SDS011;36154;51.674;7.824;2023-05-07T04:54:41;0.30;;;0.30;;
48871;SDS011;36154;51.674;7.824;2023-05-07T04:57:07;0.50;;;0.50;;
48871;SDS011;36154;51.674;7.824;2023-05-07T04:59:32;0.50;;;0.50;;
48871;SDS011;36154;51.674;7.824;2023-05-07T05:01:58;0.57;;;0.50;;
48871;SDS011;36154;51.674;7.824;2023-05-07T05:04:23;0.40;;;0.40;;
48871;SDS011;36154;51.674;7.824;2023-05-07T05:06:49;0.57;;;0.57;;
48871;SDS011;36154;51.674;7.824;2023-05-07T05:09:14;0.50;;;0.50;;
48871;SDS011;36154;51.674;7.824;2023-05-07T05:11:40;0.40;;;0.40;;
48871;SDS011;36154;51.674;7.824;2023-05-07T05:14:06;0.50;;;0.50;;
48871;SDS011;36154;51.674;7.824;2023-05-07T05:16:31;0.30;;;0.30;;
48871;SDS011;36154;51.674;7.824;2023-05-07T05:18:56;0.60;;;0.60;;
48871;SDS011;36154;51.674;7.824;2023-05-07T05:21:21;0.60;;;0.60;;
48871;SDS011;36154;51.674;7.824;2023-05-07T05:23:47;0.60;;;0.60;;
48871;SDS011;36154;51.674;7.824;2023-05-07T05:26:12;1.20;;;0.55;;
48871;SDS011;36154;51.674;7.824;2023-05-07T05:28:38;0.50;;;0.50;;
48871;SDS011;36154;51.674;7.824;2023-05-07T05:31:04;0.40;;;0.40;;
48871;SDS011;36154;51.674;7.824;2023-05-07T05:33:30;0.55;;;0.55;;
48871;SDS011;36154;51.674;7.824;2023-05-07T05:35:55;0.60;;;0.60;;
48871;SDS011;36154;51.674;7.824;2023-05-07T05:38:20;0.60;;;0.50;;
48871;SDS011;36154;51.674;7.824;2023-05-07T05:40:46;1.50;;;0.63;;
48871;SDS011;36154;51.674;7.824;2023-05-07T05:43:11;0.75;;;0.75;;
48871;SDS011;36154;51.674;7.824;2023-05-07T05:45:37;0.60;;;0.60;;
48871;SDS011;36154;51.674;7.824;2023-05-07T05:48:02;0.60;;;0.60;;
48871;SDS011;36154;51.674;7.824;2023-05-07T05:50:28;0.63;;;0.63;;
48871;SDS011;36154;51.674;7.824;2023-05-07T05:52:53;0.70;;;0.70;;
48871;SDS011;36154;51.674;7.824;2023-05-07T05:55:18;0.82;;;0.77;;
48871;SDS011;36154;51.674;7.824;2023-05-07T05:57:44;0.60;;;0.60;;
48871;SDS011;36154;51.674;7.824;2023-05-07T06:00:10;1.02;;;0.73;;
48871;SDS011;36154;51.674;7.824;2023-05-07T06:02:36;0.70;;;0.70;;
48871;SDS011;36154;51.674;7.824;2023-05-07T06:05:01;0.80;;;0.80;;
48871;SDS011;36154;51.674;7.824;2023-05-07T06:07:27;0.82;;;0.82;;
48871;SDS011;36154;51.674;7.824;2023-05-07T06:09:52;0.80;;;0.80;;
48871;SDS011;36154;51.674;7.824;2023-05-07T06:12:17;0.75;;;0.75;;
48871;SDS011;36154;51.674;7.824;2023-05-07T06:14:43;0.90;;;0.90;;
48871;SDS011;36154;51.674;7.824;2023-05-07T06:17:09;1.08;;;1.08;;
48871;SDS011;36154;51.674;7.824;2023-05-07T06:19:34;0.80;;;0.80;;
48871;SDS011;36154;51.674;7.824;2023-05-07T06:21:59;1.38;;;1.00;;
48871;SDS011;36154;51.674;7.824;2023-05-07T06:24:26;0.98;;;0.93;;
48871;SDS011;36154;51.674;7.824;2023-05-07T06:26:52;1.08;;;1.08;;
48871;SDS011;36154;51.674;7.824;2023-05-07T06:29:20;0.90;;;0.90;;
48871;SDS011;36154;51.674;7.824;2023-05-07T06:31:45;2.35;;;1.08;;
48871;SDS011;36154;51.674;7.824;2023-05-07T06:34:10;1.08;;;1.08;;
48871;SDS011;36154;51.674;7.824;2023-05-07T06:36:39;1.40;;;1.20;;
48871;SDS011;36154;51.674;7.824;2023-05-07T06:39:04;1.13;;;1.13;;
48871;SDS011;36154;51.674;7.824;2023-05-07T06:41:29;1.45;;;1.35;;
48871;SDS011;36154;51.674;7.824;2023-05-07T06:43:55;1.00;;;1.00;;
48871;SDS011;36154;51.674;7.824;2023-05-07T06:46:20;1.40;;;1.30;;
48871;SDS011;36154;51.674;7.824;2023-05-07T06:48:45;0.98;;;0.98;;
48871;SDS011;36154;51.674;7.824;2023-05-07T06:51:11;1.10;;;1.00;;
48871;SDS011;36154;51.674;7.824;2023-05-07T06:53:36;1.10;;;1.10;;
48871;SDS011;36154;51.674;7.824;2023-05-07T06:56:01;1.00;;;1.00;;
48871;SDS011;36154;51.674;7.824;2023-05-07T06:58:26;1.67;;;1.10;;
48871;SDS011;36154;51.674;7.824;2023-05-07T07:00:52;1.23;;;1.23;;
48871;SDS011;36154;51.674;7.824;2023-05-07T07:03:17;0.95;;;0.95;;
48871;SDS011;36154;51.674;7.824;2023-05-07T07:05:42;1.13;;;1.13;;
48871;SDS011;36154;51.674;7.824;2023-05-07T07:08:08;1.08;;;1.08;;
48871;SDS011;36154;51.674;7.824;2023-05-07T07:10:34;1.10;;;1.10;;
48871;SDS011;36154;51.674;7.824;2023-05-07T07:13:00;1.13;;;1.13;;
48871;SDS011;36154;51.674;7.824;2023-05-07T07:15:25;1.48;;;1.38;;
48871;SDS011;36154;51.674;7.824;2023-05-07T07:17:51;1.30;;;1.30;;
48871;SDS011;36154;51.674;7.824;2023-05-07T07:20:16;1.00;;;1.00;;
48871;SDS011;36154;51.674;7.824;2023-05-07T07:22:42;1.10;;;1.10;;
48871;SDS011;36154;51.674;7.824;2023-05-07T07:25:07;1.58;;;1.48;;
48871;SDS011;36154;51.674;7.824;2023-05-07T07:27:33;1.05;;;1.05;;
48871;SDS011;36154;51.674;7.824;2023-05-07T07:29:58;1.42;;;1.33;;
48871;SDS011;36154;51.674;7.824;2023-05-07T07:32:23;1.00;;;1.00;;
48871;SDS011;36154;51.674;7.824;2023-05-07T07:34:48;1.33;;;1.23;;
48871;SDS011;36154;51.674;7.824;2023-05-07T07:37:14;1.65;;;1.55;;
48871;SDS011;36154;51.674;7.824;2023-05-07T07:39:39;1.30;;;1.20;;
48871;SDS011;36154;51.674;7.824;2023-05-07T07:42:06;1.73;;;1.63;;
48871;SDS011;36154;51.674;7.824;2023-05-07T07:44:31;1.85;;;1.75;;
48871;SDS011;36154;51.674;7.824;2023-05-07T07:46:56;2.25;;;1.30;;
48871;SDS011;36154;51.674;7.824;2023-05-07T07:49:22;1.80;;;1.70;;
48871;SDS011;36154;51.674;7.824;2023-05-07T07:51:48;1.60;;;1.50;;
48871;SDS011;36154;51.674;7.824;2023-05-07T07:54:13;1.58;;;1.58;;
48871;SDS011;36154;51.674;7.824;2023-05-07T07:56:38;2.13;;;1.55;;
48871;SDS011;36154;51.674;7.824;2023-05-07T07:59:04;2.08;;;1.92;;
48871;SDS011;36154;51.674;7.824;2023-05-07T08:01:29;1.77;;;1.67;;
48871;SDS011;36154;51.674;7.824;2023-05-07T08:03:55;1.70;;;1.60;;
48871;SDS011;36154;51.674;7.824;2023-05-07T08:06:22;1.52;;;1.42;;
48871;SDS011;36154;51.674;7.824;2023-05-07T08:08:48;1.67;;;1.58;;
48871;SDS011;36154;51.674;7.824;2023-05-07T08:11:13;1.77;;;1.67;;
48871;SDS011;36154;51.674;7.824;2023-05-07T08:13:39;1.38;;;1.38;;
48871;SDS011;36154;51.674;7.824;2023-05-07T08:16:05;2.00;;;1.90;;
48871;SDS011;36154;51.674;7.824;2023-05-07T08:18:30;1.80;;;1.70;;
48871;SDS011;36154;51.674;7.824;2023-05-07T08:20:55;1.70;;;1.60;;
48871;SDS011;36154;51.674;7.824;2023-05-07T08:23:21;2.10;;;2.00;;
48871;SDS011;36154;51.674;7.824;2023-05-07T08:25:48;1.73;;;1.63;;
48871;SDS011;36154;51.674;7.824;2023-05-07T08:28:14;2.00;;;1.90;;
48871;SDS011;36154;51.674;7.824;2023-05-07T08:30:39;2.20;;;2.10;;
48871;SDS011;36154;51.674;7.824;2023-05-07T08:33:05;4.20;;;3.85;;
48871;SDS011;36154;51.674;7.824;2023-05-07T08:35:30;6.70;;;6.00;;
48871;SDS011;36154;51.674;7.824;2023-05-07T08:37:56;11.65;;;8.98;;
48871;SDS011;36154;51.674;7.824;2023-05-07T08:40:23;9.63;;;8.20;;
48871;SDS011;36154;51.674;7.824;2023-05-07T08:42:51;12.20;;;9.25;;
48871;SDS011;36154;51.674;7.824;2023-05-07T08:45:18;12.88;;;9.05;;
48871;SDS011;36154;51.674;7.824;2023-05-07T08:47:54;16.17;;;10.93;;
48871;SDS011;36154;51.674;7.824;2023-05-07T08:50:24;11.02;;;9.20;;
48871;SDS011;36154;51.674;7.824;2023-05-07T08:52:50;11.30;;;9.93;;
48871;SDS011;36154;51.674;7.824;2023-05-07T08:55:15;12.10;;;10.43;;
48871;SDS011;36154;51.674;7.824;2023-05-07T08:57:42;13.50;;;10.95;;
48871;SDS011;36154;51.674;7.824;2023-05-07T09:00:07;12.00;;;9.52;;
48871;SDS011;36154;51.674;7.824;2023-05-07T09:02:34;11.90;;;9.68;;
48871;SDS011;36154;51.674;7.824;2023-05-07T09:05:01;12.70;;;9.98;;
48871;SDS011;36154;51.674;7.824;2023-05-07T09:07:26;11.13;;;10.02;;
48871;SDS011;36154;51.674;7.824;2023-05-07T09:09:52;11.70;;;10.23;;
48871;SDS011;36154;51.674;7.824;2023-05-07T09:12:18;15.30;;;10.68;;
48871;SDS011;36154;51.674;7.824;2023-05-07T09:14:44;12.73;;;10.57;;
48871;SDS011;36154;51.674;7.824;2023-05-07T09:17:10;11.70;;;10.50;;
48871;SDS011;36154;51.674;7.824;2023-05-07T09:19:36;12.68;;;9.93;;
48871;SDS011;36154;51.674;7.824;2023-05-07T09:22:01;13.02;;;10.73;;
48871;SDS011;36154;51.674;7.824;2023-05-07T09:24:28;22.17;;;10.82;;
48871;SDS011;36154;51.674;7.824;2023-05-07T09:26:57;16.90;;;11.20;;
48871;SDS011;36154;51.674;7.824;2023-05-07T09:29:23;14.15;;;9.82;;
48871;SDS011;36154;51.674;7.824;2023-05-07T09:31:48;12.27;;;10.50;;
48871;SDS011;36154;51.674;7.824;2023-05-07T09:34:13;18.23;;;11.50;;
48871;SDS011;36154;51.674;7.824;2023-05-07T09:36:39;20.80;;;11.25;;
48871;SDS011;36154;51.674;7.824;2023-05-07T09:39:04;22.13;;;11.82;;
48871;SDS011;36154;51.674;7.824;2023-05-07T09:41:30;15.10;;;10.70;;
48871;SDS011;36154;51.674;7.824;2023-05-07T09:43:57;15.00;;;11.13;;
48871;SDS011;36154;51.674;7.824;2023-05-07T09:46:27;14.15;;;10.73;;
48871;SDS011;36154;51.674;7.824;2023-05-07T09:48:56;15.13;;;11.02;;
48871;SDS011;36154;51.674;7.824;2023-05-07T09:51:28;13.52;;;10.65;;
48871;SDS011;36154;51.674;7.824;2023-05-07T09:53:56;11.70;;;10.45;;
48871;SDS011;36154;51.674;7.824;2023-05-07T09:56:23;13.10;;;10.23;;
48871;SDS011;36154;51.674;7.824;2023-05-07T09:58:52;15.13;;;9.35;;
48871;SDS011;36154;51.674;7.824;2023-05-07T10:01:19;12.50;;;10.27;;
48871;SDS011;36154;51.674;7.824;2023-05-07T10:03:47;12.73;;;10.05;;
48871;SDS011;36154;51.674;7.824;2023-05-07T10:06:15;11.60;;;9.88;;
48871;SDS011;36154;51.674;7.824;2023-05-07T10:08:40;11.02;;;9.48;;
48871;SDS011;36154;51.674;7.824;2023-05-07T10:11:08;10.57;;;9.57;;
48871;SDS011;36154;51.674;7.824;2023-05-07T10:13:34;10.55;;;9.18;;
48871;SDS011;36154;51.674;7.824;2023-05-07T10:16:01;10.57;;;9.10;;
48871;SDS011;36154;51.674;7.824;2023-05-07T10:18:30;10.23;;;8.60;;
48871;SDS011;36154;51.674;7.824;2023-05-07T10:21:07;9.93;;;8.93;;
48871;SDS011;36154;51.674;7.824;2023-05-07T10:23:35;12.40;;;8.95;;
48871;SDS011;36154;51.674;7.824;2023-05-07T10:26:04;10.90;;;8.07;;
48871;SDS011;36154;51.674;7.824;2023-05-07T10:28:34;7.05;;;6.47;;
48871;SDS011;36154;51.674;7.824;2023-05-07T10:34:01;5.80;;;5.40;;
48871;SDS011;36154;51.674;7.824;2023-05-07T10:36:34;5.72;;;5.28;;
48871;SDS011;36154;51.674;7.824;2023-05-07T10:38:59;5.57;;;5.07;;
48871;SDS011;36154;51.674;7.824;2023-05-07T10:41:25;5.85;;;5.35;;
48871;SDS011;36154;51.674;7.824;2023-05-07T10:43:50;5.97;;;5.45;;
48871;SDS011;36154;51.674;7.824;2023-05-07T10:46:19;5.55;;;5.15;;
48871;SDS011;36154;51.674;7.824;2023-05-07T10:51:26;5.25;;;4.85;;
48871;SDS011;36154;51.674;7.824;2023-05-07T10:56:39;5.60;;;5.13;;
48871;SDS011;36154;51.674;7.824;2023-05-07T11:04:31;5.20;;;4.70;;
48871;SDS011;36154;51.674;7.824;2023-05-07T11:15:09;5.00;;;4.47;;
48871;SDS011;36154;51.674;7.824;2023-05-07T11:20:19;6.15;;;5.65;;
48871;SDS011;36154;51.674;7.824;2023-05-07T11:22:45;5.85;;;4.95;;
48871;SDS011;36154;51.674;7.824;2023-05-07T11:25:11;6.07;;;5.50;;
48871;SDS011;36154;51.674;7.824;2023-05-07T11:27:42;5.80;;;5.28;;
48871;SDS011;36154;51.674;7.824;2023-05-07T11:30:08;6.10;;;5.50;;
48871;SDS011;36154;51.674;7.824;2023-05-07T11:32:34;6.00;;;5.50;;
48871;SDS011;36154;51.674;7.824;2023-05-07T11:34:59;7.43;;;5.57;;
48871;SDS011;36154;51.674;7.824;2023-05-07T11:37:26;6.32;;;5.57;;
48871;SDS011;36154;51.674;7.824;2023-05-07T11:40:03;6.75;;;6.07;;
48871;SDS011;36154;51.674;7.824;2023-05-07T11:42:32;6.97;;;6.25;;
48871;SDS011;36154;51.674;7.824;2023-05-07T11:44:59;8.85;;;5.28;;
48871;SDS011;36154;51.674;7.824;2023-05-07T11:47:24;5.90;;;4.72;;
48871;SDS011;36154;51.674;7.824;2023-05-07T11:49:53;9.18;;;5.30;;
48871;SDS011;36154;51.674;7.824;2023-05-07T11:52:20;8.48;;;4.40;;
48871;SDS011;36154;51.674;7.824;2023-05-07T11:54:50;6.95;;;5.07;;
48871;SDS011;36154;51.674;7.824;2023-05-07T11:57:16;5.50;;;5.00;;
48871;SDS011;36154;51.674;7.824;2023-05-07T11:59:41;6.28;;;4.80;;
48871;SDS011;36154;51.674;7.824;2023-05-07T12:02:09;5.65;;;4.68;;
48871;SDS011;36154;51.674;7.824;2023-05-07T12:04:35;4.72;;;4.30;;
48871;SDS011;36154;51.674;7.824;2023-05-07T12:07:00;4.80;;;4.32;;
48871;SDS011;36154;51.674;7.824;2023-05-07T12:09:26;5.78;;;5.28;;
48871;SDS011;36154;51.674;7.824;2023-05-07T12:11:51;4.72;;;4.43;;
48871;SDS011;36154;51.674;7.824;2023-05-07T12:14:17;7.45;;;4.10;;
48871;SDS011;36154;51.674;7.824;2023-05-07T12:16:42;4.55;;;3.70;;
48871;SDS011;36154;51.674;7.824;2023-05-07T12:19:08;4.63;;;3.65;;
48871;SDS011;36154;51.674;7.824;2023-05-07T12:21:37;6.80;;;4.20;;
48871;SDS011;36154;51.674;7.824;2023-05-07T12:24:02;5.10;;;4.60;;
48871;SDS011;36154;51.674;7.824;2023-05-07T12:26:28;5.45;;;4.15;;
48871;SDS011;36154;51.674;7.824;2023-05-07T12:28:53;4.38;;;3.97;;
48871;SDS011;36154;51.674;7.824;2023-05-07T12:31:19;4.40;;;4.00;;
48871;SDS011;36154;51.674;7.824;2023-05-07T12:33:45;4.78;;;3.75;;
48871;SDS011;36154;51.674;7.824;2023-05-07T12:36:12;4.38;;;3.80;;
48871;SDS011;36154;51.674;7.824;2023-05-07T12:38:38;4.70;;;4.00;;
48871;SDS011;36154;51.674;7.824;2023-05-07T12:41:05;4.35;;;4.05;;
48871;SDS011;36154;51.674;7.824;2023-05-07T12:43:32;12.65;;;4.18;;
48871;SDS011;36154;51.674;7.824;2023-05-07T12:46:01;3.75;;;3.15;;
48871;SDS011;36154;51.674;7.824;2023-05-07T12:48:30;4.82;;;3.88;;
48871;SDS011;36154;51.674;7.824;2023-05-07T12:50:56;4.10;;;3.85;;
48871;SDS011;36154;51.674;7.824;2023-05-07T12:53:23;5.95;;;3.30;;
48871;SDS011;36154;51.674;7.824;2023-05-07T12:55:51;3.47;;;3.17;;
48871;SDS011;36154;51.674;7.824;2023-05-07T12:58:21;3.22;;;3.03;;
48871;SDS011;36154;51.674;7.824;2023-05-07T13:00:51;5.57;;;3.63;;
48871;SDS011;36154;51.674;7.824;2023-05-07T13:03:21;3.58;;;3.20;;
48871;SDS011;36154;51.674;7.824;2023-05-07T13:05:48;5.47;;;3.30;;
48871;SDS011;36154;51.674;7.824;2023-05-07T13:08:23;3.22;;;3.03;;
48871;SDS011;36154;51.674;7.824;2023-05-07T13:10:52;3.33;;;3.13;;
48871;SDS011;36154;51.674;7.824;2023-05-07T13:13:19;3.60;;;3.40;;
48871;SDS011;36154;51.674;7.824;2023-05-07T13:15:45;3.95;;;3.65;;
48871;SDS011;36154;51.674;7.824;2023-05-07T13:18:11;3.15;;;2.95;;
48871;SDS011;36154;51.674;7.824;2023-05-07T13:20:37;3.67;;;3.47;;
48871;SDS011;36154;51.674;7.824;2023-05-07T13:23:02;4.10;;;3.38;;
48871;SDS011;36154;51.674;7.824;2023-05-07T13:25:29;3.17;;;2.92;;
48871;SDS011;36154;51.674;7.824;2023-05-07T13:27:56;3.08;;;2.90;;
48871;SDS011;36154;51.674;7.824;2023-05-07T13:30:22;2.97;;;2.88;;
48871;SDS011;36154;51.674;7.824;2023-05-07T13:32:47;3.78;;;2.95;;
48871;SDS011;36154;51.674;7.824;2023-05-07T13:35:13;3.42;;;3.22;;
48871;SDS011;36154;51.674;7.824;2023-05-07T13:37:39;3.70;;;3.40;;
48871;SDS011;36154;51.674;7.824;2023-05-07T13:40:04;2.97;;;2.88;;
48871;SDS011;36154;51.674;7.824;2023-05-07T13:42:31;3.28;;;3.08;;
48871;SDS011;36154;51.674;7.824;2023-05-07T13:44:56;3.40;;;3.20;;
48871;SDS011;36154;51.674;7.824;2023-05-07T13:47:22;3.70;;;3.30;;
48871;SDS011;36154;51.674;7.824;2023-05-07T13:49:47;3.33;;;3.00;;
48871;SDS011;36154;51.674;7.824;2023-05-07T13:52:14;3.50;;;3.13;;
48871;SDS011;36154;51.674;7.824;2023-05-07T13:54:40;2.67;;;2.58;;
48871;SDS011;36154;51.674;7.824;2023-05-07T13:57:06;2.40;;;2.20;;
48871;SDS011;36154;51.674;7.824;2023-05-07T13:59:31;3.08;;;2.10;;
48871;SDS011;36154;51.674;7.824;2023-05-07T14:01:56;2.63;;;2.53;;
48871;SDS011;36154;51.674;7.824;2023-05-07T14:04:21;1.88;;;1.77;;
48871;SDS011;36154;51.674;7.824;2023-05-07T14:06:47;2.03;;;1.92;;
48871;SDS011;36154;51.674;7.824;2023-05-07T14:09:12;1.98;;;1.88;;
48871;SDS011;36154;51.674;7.824;2023-05-07T14:11:38;1.80;;;1.70;;
48871;SDS011;36154;51.674;7.824;2023-05-07T14:14:04;1.00;;;1.00;;
48871;SDS011;36154;51.674;7.824;2023-05-07T14:16:30;1.40;;;1.30;;
48871;SDS011;36154;51.674;7.824;2023-05-07T14:18:55;1.30;;;1.30;;
48871;SDS011;36154;51.674;7.824;2023-05-07T14:21:20;1.30;;;1.30;;
48871;SDS011;36154;51.674;7.824;2023-05-07T14:23:46;2.88;;;1.33;;
48871;SDS011;36154;51.674;7.824;2023-05-07T14:26:12;1.45;;;1.02;;
48871;SDS011;36154;51.674;7.824;2023-05-07T14:28:37;1.00;;;1.00;;
48871;SDS011;36154;51.674;7.824;2023-05-07T14:31:04;1.23;;;1.23;;
48871;SDS011;36154;51.674;7.824;2023-05-07T14:33:29;1.20;;;1.20;;
48871;SDS011;36154;51.674;7.824;2023-05-07T14:35:55;1.08;;;1.08;;
48871;SDS011;36154;51.674;7.824;2023-05-07T14:38:22;1.10;;;1.10;;
48871;SDS011;36154;51.674;7.824;2023-05-07T14:40:48;1.40;;;1.25;;
48871;SDS011;36154;51.674;7.824;2023-05-07T14:43:13;1.10;;;1.10;;
48871;SDS011;36154;51.674;7.824;2023-05-07T14:45:38;1.08;;;0.98;;
48871;SDS011;36154;51.674;7.824;2023-05-07T14:48:04;0.70;;;0.70;;
48871;SDS011;36154;51.674;7.824;2023-05-07T14:50:29;0.90;;;0.90;;
48871;SDS011;36154;51.674;7.824;2023-05-07T14:52:55;1.00;;;1.00;;
48871;SDS011;36154;51.674;7.824;2023-05-07T14:55:20;1.00;;;0.80;;
48871;SDS011;36154;51.674;7.824;2023-05-07T14:57:45;1.02;;;1.00;;
48871;SDS011;36154;51.674;7.824;2023-05-07T15:00:13;0.90;;;0.90;;
48871;SDS011;36154;51.674;7.824;2023-05-07T15:02:38;2.75;;;2.10;;